sensor_id;sensor_type;location;lat;lon;timestamp;pressure;altitude;pressure_sealevel;temperature;humidity
8717;BME280;4395;48.554;8.820;2023-04-28T00:00:22;95720.78;;;12.08;100.00
8717;BME280;4395;48.554;8.820;2023-04-28T00:02:25;95572.69;;;11.15;100.00
8717;BME280;4395;48.554;8.820;2023-04-28T00:04:28;95657.38;;;11.75;100.00
8717;BME280;4395;48.554;8.820;2023-04-28T00:06:32;95663.88;;;11.79;100.00
8717;BME280;4395;48.554;8.820;2023-04-28T00:08:35;95719.97;;;12.18;100.00
8717;BME280;4395;48.554;8.820;2023-04-28T00:10:37;95725.09;;;12.19;100.00
8717;BME280;4395;48.554;8.820;2023-04-28T00:12:41;95721.88;;;12.17;100.00
8717;BME280;4395;48.554;8.820;2023-04-28T00:14:44;95723.47;;;12.13;100.00
8717;BME280;4395;48.554;8.820;2023-04-28T00:16:47;95721.03;;;12.07;100.00
8717;BME280;4395;48.554;8.820;2023-04-28T00:18:50;95714.53;;;11.98;100.00
8717;BME280;4395;48.554;8.820;2023-04-28T00:20:53;95707.81;;;12.00;100.00
8717;BME280;4395;48.554;8.820;2023-04-28T00:22:56;95587.78;;;11.21;100.00
8717;BME280;4395;48.554;8.820;2023-04-28T00:24:59;95621.19;;;11.36;100.00
8717;BME280;4395;48.554;8.820;2023-04-28T00:27:02;95705.25;;;11.68;100.00
8717;BME280;4395;48.554;8.820;2023-04-28T00:29:06;95697.97;;;11.64;100.00
8717;BME280;4395;48.554;8.820;2023-04-28T00:31:09;95692.56;;;11.53;100.00
8717;BME280;4395;48.554;8.820;2023-04-28T00:33:13;95727.84;;;11.62;100.00
8717;BME280;4395;48.554;8.820;2023-04-28T00:35:16;95697.16;;;11.63;100.00
8717;BME280;4395;48.554;8.820;2023-04-28T00:37:19;95686.31;;;11.43;100.00
8717;BME280;4395;48.554;8.820;2023-04-28T00:39:22;95690.03;;;11.32;100.00
8717;BME280;4395;48.554;8.820;2023-04-28T00:41:27;95688.19;;;11.37;100.00
8717;BME280;4395;48.554;8.820;2023-04-28T00:43:29;95322.13;;;8.84;100.00
8717;BME280;4395;48.554;8.820;2023-04-28T00:45:34;95679.84;;;11.39;100.00
8717;BME280;4395;48.554;8.820;2023-04-28T00:47:37;95675.31;;;11.44;100.00
8717;BME280;4395;48.554;8.820;2023-04-28T00:49:40;95551.50;;;10.67;100.00
8717;BME280;4395;48.554;8.820;2023-04-28T00:51:42;95685.31;;;11.59;100.00
8717;BME280;4395;48.554;8.820;2023-04-28T00:53:45;95523.53;;;10.62;100.00
8717;BME280;4395;48.554;8.820;2023-04-28T00:55:50;95691.28;;;11.71;100.00
8717;BME280;4395;48.554;8.820;2023-04-28T00:57:55;95684.59;;;11.79;100.00
8717;BME280;4395;48.554;8.820;2023-04-28T00:59:59;95677.63;;;11.88;100.00
8717;BME280;4395;48.554;8.820;2023-04-28T01:02:04;95702.94;;;11.92;100.00
8717;BME280;4395;48.554;8.820;2023-04-28T01:04:08;95687.88;;;11.96;100.00
8717;BME280;4395;48.554;8.820;2023-04-28T01:06:13;95349.25;;;9.66;100.00
8717;BME280;4395;48.554;8.820;2023-04-28T01:08:22;95551.19;;;11.15;100.00
8717;BME280;4395;48.554;8.820;2023-04-28T01:10:25;95665.53;;;11.90;100.00
8717;BME280;4395;48.554;8.820;2023-04-28T01:12:28;95592.69;;;11.45;100.00
8717;BME280;4395;48.554;8.820;2023-04-28T01:14:32;95640.16;;;11.76;100.00
8717;BME280;4395;48.554;8.820;2023-04-28T01:16:37;95667.97;;;12.02;100.00
8717;BME280;4395;48.554;8.820;2023-04-28T01:18:46;95668.25;;;12.06;100.00
8717;BME280;4395;48.554;8.820;2023-04-28T01:20:49;95649.09;;;11.92;100.00
8717;BME280;4395;48.554;8.820;2023-04-28T01:22:52;95653.44;;;12.03;100.00
8717;BME280;4395;48.554;8.820;2023-04-28T01:24:56;95600.78;;;11.50;100.00
8717;BME280;4395;48.554;8.820;2023-04-28T01:27:01;95656.91;;;11.99;100.00
8717;BME280;4395;48.554;8.820;2023-04-28T01:29:04;95640.50;;;12.00;100.00
8717;BME280;4395;48.554;8.820;2023-04-28T01:31:07;95652.06;;;12.01;100.00
8717;BME280;4395;48.554;8.820;2023-04-28T01:33:10;95586.53;;;11.54;100.00
8717;BME280;4395;48.554;8.820;2023-04-28T01:35:13;95503.81;;;11.04;100.00
8717;BME280;4395;48.554;8.820;2023-04-28T01:37:16;95456.72;;;10.86;100.00
8717;BME280;4395;48.554;8.820;2023-04-28T01:39:19;95644.78;;;11.96;100.00
8717;BME280;4395;48.554;8.820;2023-04-28T01:41:23;95640.22;;;11.97;100.00
8717;BME280;4395;48.554;8.820;2023-04-28T01:43:26;95648.84;;;11.99;100.00
8717;BME280;4395;48.554;8.820;2023-04-28T01:45:28;95638.59;;;12.01;100.00
8717;BME280;4395;48.554;8.820;2023-04-28T01:47:32;95557.16;;;11.43;100.00
8717;BME280;4395;48.554;8.820;2023-04-28T01:49:35;95648.84;;;12.04;100.00
8717;BME280;4395;48.554;8.820;2023-04-28T01:51:41;95554.50;;;11.48;100.00
8717;BME280;4395;48.554;8.820;2023-04-28T01:53:44;95640.75;;;12.04;100.00
8717;BME280;4395;48.554;8.820;2023-04-28T01:55:47;95638.59;;;12.01;100.00
8717;BME280;4395;48.554;8.820;2023-04-28T01:57:53;95613.78;;;11.78;100.00
8717;BME280;4395;48.554;8.820;2023-04-28T01:59:56;95649.38;;;12.01;100.00
8717;BME280;4395;48.554;8.820;2023-04-28T02:02:00;95636.47;;;12.03;100.00
8717;BME280;4395;48.554;8.820;2023-04-28T02:04:03;95489.84;;;11.12;100.00
8717;BME280;4395;48.554;8.820;2023-04-28T02:06:09;95634.84;;;12.07;100.00
8717;BME280;4395;48.554;8.820;2023-04-28T02:08:12;95644.53;;;11.98;100.00
8717;BME280;4395;48.554;8.820;2023-04-28T02:10:15;95638.06;;;11.94;100.00
8717;BME280;4395;48.554;8.820;2023-04-28T02:12:18;95628.91;;;12.00;100.00
8717;BME280;4395;48.554;8.820;2023-04-28T02:14:22;95621.91;;;12.04;100.00
8717;BME280;4395;48.554;8.820;2023-04-28T02:16:25;95620.28;;;12.03;100.00
8717;BME280;4395;48.554;8.820;2023-04-28T02:18:28;95618.41;;;12.03;100.00
8717;BME280;4395;48.554;8.820;2023-04-28T02:20:33;95614.91;;;12.08;100.00
8717;BME280;4395;48.554;8.820;2023-04-28T02:22:36;95607.38;;;12.05;100.00
8717;BME280;4395;48.554;8.820;2023-04-28T02:24:40;95621.63;;;11.95;100.00
8717;BME280;4395;48.554;8.820;2023-04-28T02:26:42;95634.53;;;11.78;100.00
8717;BME280;4395;48.554;8.820;2023-04-28T02:28:45;95620.22;;;11.72;100.00
8717;BME280;4395;48.554;8.820;2023-04-28T02:30:50;95289.69;;;9.64;100.00
8717;BME280;4395;48.554;8.820;2023-04-28T02:32:53;95607.53;;;11.63;100.00
8717;BME280;4395;48.554;8.820;2023-04-28T02:34:57;95634.81;;;11.81;100.00
8717;BME280;4395;48.554;8.820;2023-04-28T02:37:00;95505.41;;;10.95;100.00
8717;BME280;4395;48.554;8.820;2023-04-28T02:39:03;95544.50;;;11.28;100.00
8717;BME280;4395;48.554;8.820;2023-04-28T02:41:06;95636.72;;;11.96;100.00
8717;BME280;4395;48.554;8.820;2023-04-28T02:43:10;95548.56;;;11.41;100.00
8717;BME280;4395;48.554;8.820;2023-04-28T02:45:14;95631.63;;;12.10;100.00
8717;BME280;4395;48.554;8.820;2023-04-28T02:47:44;95634.31;;;12.05;100.00
8717;BME280;4395;48.554;8.820;2023-04-28T02:49:47;95633.75;;;11.98;100.00
8717;BME280;4395;48.554;8.820;2023-04-28T02:51:50;95634.84;;;12.02;100.00
8717;BME280;4395;48.554;8.820;2023-04-28T02:53:53;95643.47;;;12.09;100.00
8717;BME280;4395;48.554;8.820;2023-04-28T02:55:56;95455.66;;;10.98;100.00
8717;BME280;4395;48.554;8.820;2023-04-28T02:58:00;95646.16;;;12.19;100.00
8717;BME280;4395;48.554;8.820;2023-04-28T03:00:04;95644.00;;;12.21;100.00
8717;BME280;4395;48.554;8.820;2023-04-28T03:02:15;95513.59;;;11.41;100.00
8717;BME280;4395;48.554;8.820;2023-04-28T03:04:19;95565.28;;;11.58;100.00
8717;BME280;4395;48.554;8.820;2023-04-28T03:06:23;95481.81;;;11.27;100.00
8717;BME280;4395;48.554;8.820;2023-04-28T03:08:27;95631.09;;;12.18;100.00
8717;BME280;4395;48.554;8.820;2023-04-28T03:10:30;95637.81;;;12.15;100.00
8717;BME280;4395;48.554;8.820;2023-04-28T03:12:34;95640.50;;;12.10;100.00
8717;BME280;4395;48.554;8.820;2023-04-28T03:14:37;95628.13;;;12.09;100.00
8717;BME280;4395;48.554;8.820;2023-04-28T03:16:40;95624.06;;;12.12;100.00
8717;BME280;4395;48.554;8.820;2023-04-28T03:18:43;95621.38;;;12.12;100.00
8717;BME280;4395;48.554;8.820;2023-04-28T03:20:47;95627.56;;;12.12;100.00
8717;BME280;4395;48.554;8.820;2023-04-28T03:22:50;95528.66;;;11.47;100.00
8717;BME280;4395;48.554;8.820;2023-04-28T03:24:53;95627.84;;;12.01;100.00
8717;BME280;4395;48.554;8.820;2023-04-28T03:26:56;95600.34;;;11.94;100.00
8717;BME280;4395;48.554;8.820;2023-04-28T03:28:59;95606.56;;;11.94;100.00
8717;BME280;4395;48.554;8.820;2023-04-28T03:31:02;95598.22;;;11.96;100.00
8717;BME280;4395;48.554;8.820;2023-04-28T03:33:05;95590.94;;;11.91;100.00
8717;BME280;4395;48.554;8.820;2023-04-28T03:35:08;95556.13;;;11.59;100.00
8717;BME280;4395;48.554;8.820;2023-04-28T03:37:14;95450.03;;;10.99;100.00
8717;BME280;4395;48.554;8.820;2023-04-28T03:39:18;95598.22;;;11.96;100.00
8717;BME280;4395;48.554;8.820;2023-04-28T03:41:20;95598.22;;;12.01;100.00
8717;BME280;4395;48.554;8.820;2023-04-28T03:43:42;95584.19;;;11.88;100.00
8717;BME280;4395;48.554;8.820;2023-04-28T03:45:52;95594.97;;;11.94;100.00
8717;BME280;4395;48.554;8.820;2023-04-28T03:47:55;95588.25;;;11.91;100.00
8717;BME280;4395;48.554;8.820;2023-04-28T03:49:58;95592.53;;;11.92;100.00
8717;BME280;4395;48.554;8.820;2023-04-28T03:52:01;95502.81;;;11.36;100.00
8717;BME280;4395;48.554;8.820;2023-04-28T03:54:06;95597.13;;;11.97;100.00
8717;BME280;4395;48.554;8.820;2023-04-28T03:56:09;95592.56;;;11.97;100.00
8717;BME280;4395;48.554;8.820;2023-04-28T03:58:13;95601.16;;;11.94;100.00
8717;BME280;4395;48.554;8.820;2023-04-28T04:00:16;95586.63;;;11.90;100.00
8717;BME280;4395;48.554;8.820;2023-04-28T04:02:21;95592.81;;;11.96;100.00
8717;BME280;4395;48.554;8.820;2023-04-28T04:04:24;95556.19;;;11.79;100.00
8717;BME280;4395;48.554;8.820;2023-04-28T04:06:30;95465.94;;;11.21;100.00
8717;BME280;4395;48.554;8.820;2023-04-28T04:08:33;95593.91;;;11.95;100.00
8717;BME280;4395;48.554;8.820;2023-04-28T04:10:38;95403.13;;;10.54;100.00
8717;BME280;4395;48.554;8.820;2023-04-28T04:12:41;95586.34;;;11.81;100.00
8717;BME280;4395;48.554;8.820;2023-04-28T04:14:44;95573.44;;;11.88;100.00
8717;BME280;4395;48.554;8.820;2023-04-28T04:16:47;95358.47;;;10.38;100.00
8717;BME280;4395;48.554;8.820;2023-04-28T04:18:50;95484.47;;;11.07;100.00
8717;BME280;4395;48.554;8.820;2023-04-28T04:20:56;95549.16;;;11.73;100.00
8717;BME280;4395;48.554;8.820;2023-04-28T04:22:59;95575.56;;;11.86;100.00
8717;BME280;4395;48.554;8.820;2023-04-28T04:25:03;95580.38;;;11.74;100.00
8717;BME280;4395;48.554;8.820;2023-04-28T04:27:08;95512.72;;;11.15;100.00
8717;BME280;4395;48.554;8.820;2023-04-28T04:29:13;95567.19;;;11.73;100.00
8717;BME280;4395;48.554;8.820;2023-04-28T04:31:16;95561.53;;;11.64;100.00
8717;BME280;4395;48.554;8.820;2023-04-28T04:33:20;95562.06;;;11.71;100.00
8717;BME280;4395;48.554;8.820;2023-04-28T04:35:24;95397.25;;;10.62;100.00
8717;BME280;4395;48.554;8.820;2023-04-28T04:37:26;95543.22;;;11.61;100.00
8717;BME280;4395;48.554;8.820;2023-04-28T04:39:33;95215.84;;;9.52;100.00
8717;BME280;4395;48.554;8.820;2023-04-28T04:41:37;95355.75;;;10.33;100.00
8717;BME280;4395;48.554;8.820;2023-04-28T04:44:04;95576.91;;;11.79;100.00
8717;BME280;4395;48.554;8.820;2023-04-28T04:46:15;95556.41;;;11.63;100.00
8717;BME280;4395;48.554;8.820;2023-04-28T04:48:20;95578.22;;;11.76;100.00
8717;BME280;4395;48.554;8.820;2023-04-28T04:50:23;95566.97;;;11.79;100.00
8717;BME280;4395;48.554;8.820;2023-04-28T04:52:27;95564.00;;;11.81;100.00
8717;BME280;4395;48.554;8.820;2023-04-28T04:54:30;95569.66;;;11.84;100.00
8717;BME280;4395;48.554;8.820;2023-04-28T04:56:33;95568.31;;;11.87;100.00
8717;BME280;4395;48.554;8.820;2023-04-28T04:58:38;95536.22;;;11.60;100.00
8717;BME280;4395;48.554;8.820;2023-04-28T05:01:09;95463.22;;;11.11;100.00
8717;BME280;4395;48.554;8.820;2023-04-28T05:03:13;95283.09;;;9.97;100.00
8717;BME280;4395;48.554;8.820;2023-04-28T05:05:16;95404.84;;;10.91;100.00
8717;BME280;4395;48.554;8.820;2023-04-28T05:07:43;95555.66;;;11.93;100.00
8717;BME280;4395;48.554;8.820;2023-04-28T05:09:47;95551.63;;;11.95;100.00
8717;BME280;4395;48.554;8.820;2023-04-28T05:11:50;95559.97;;;11.99;100.00
8717;BME280;4395;48.554;8.820;2023-04-28T05:13:53;95570.19;;;12.02;100.00
8717;BME280;4395;48.554;8.820;2023-04-28T05:15:56;95570.75;;;11.99;100.00
8717;BME280;4395;48.554;8.820;2023-04-28T05:18:12;95581.78;;;12.02;100.00
8717;BME280;4395;48.554;8.820;2023-04-28T05:20:15;95380.34;;;10.72;100.00
8717;BME280;4395;48.554;8.820;2023-04-28T05:22:18;95538.38;;;11.68;100.00
8717;BME280;4395;48.554;8.820;2023-04-28T05:24:21;95542.16;;;11.72;100.00
8717;BME280;4395;48.554;8.820;2023-04-28T05:26:25;95575.03;;;11.95;100.00
8717;BME280;4395;48.554;8.820;2023-04-28T05:28:32;95478.59;;;11.31;100.00
8717;BME280;4395;48.554;8.820;2023-04-28T05:30:35;95570.19;;;11.91;100.00
8717;BME280;4395;48.554;8.820;2023-04-28T05:32:38;95566.97;;;11.89;100.00
8717;BME280;4395;48.554;8.820;2023-04-28T05:34:42;95564.81;;;11.91;100.00
8717;BME280;4395;48.554;8.820;2023-04-28T05:36:45;95425.28;;;10.97;100.00
8717;BME280;4395;48.554;8.820;2023-04-28T05:38:48;95453.84;;;11.23;100.00
8717;BME280;4395;48.554;8.820;2023-04-28T05:40:52;95567.50;;;11.97;100.00
8717;BME280;4395;48.554;8.820;2023-04-28T05:42:56;95572.63;;;11.88;100.00
8717;BME280;4395;48.554;8.820;2023-04-28T05:44:58;95572.34;;;11.89;100.00
8717;BME280;4395;48.554;8.820;2023-04-28T05:47:01;95485.59;;;11.37;100.00
8717;BME280;4395;48.554;8.820;2023-04-28T05:49:06;95566.16;;;11.94;100.00
8717;BME280;4395;48.554;8.820;2023-04-28T05:51:12;95568.03;;;11.94;100.00
8717;BME280;4395;48.554;8.820;2023-04-28T05:53:15;95568.84;;;11.94;100.00
8717;BME280;4395;48.554;8.820;2023-04-28T05:55:17;95569.66;;;12.00;100.00
8717;BME280;4395;48.554;8.820;2023-04-28T05:57:21;95564.81;;;11.97;100.00
8717;BME280;4395;48.554;8.820;2023-04-28T05:59:24;95562.66;;;11.94;100.00
8717;BME280;4395;48.554;8.820;2023-04-28T06:01:26;95562.94;;;11.97;100.00
8717;BME280;4395;48.554;8.820;2023-04-28T06:03:29;95554.59;;;11.99;100.00
8717;BME280;4395;48.554;8.820;2023-04-28T06:05:32;95552.97;;;12.03;100.00
8717;BME280;4395;48.554;8.820;2023-04-28T06:07:37;95561.59;;;12.10;100.00
8717;BME280;4395;48.554;8.820;2023-04-28T06:09:39;95576.13;;;12.09;100.00
8717;BME280;4395;48.554;8.820;2023-04-28T06:11:42;95570.75;;;12.09;100.00
8717;BME280;4395;48.554;8.820;2023-04-28T06:13:45;95562.94;;;12.12;100.00
8717;BME280;4395;48.554;8.820;2023-04-28T06:15:48;95558.09;;;12.14;100.00
8717;BME280;4395;48.554;8.820;2023-04-28T06:17:51;95558.63;;;12.16;100.00
8717;BME280;4395;48.554;8.820;2023-04-28T06:19:54;95559.44;;;12.17;100.00
8717;BME280;4395;48.554;8.820;2023-04-28T06:21:59;95494.81;;;11.81;100.00
8717;BME280;4395;48.554;8.820;2023-04-28T06:24:03;95429.63;;;11.23;100.00
8717;BME280;4395;48.554;8.820;2023-04-28T06:26:06;95561.59;;;12.10;100.00
8717;BME280;4395;48.554;8.820;2023-04-28T06:28:13;95561.31;;;12.16;100.00
8717;BME280;4395;48.554;8.820;2023-04-28T06:30:16;95548.66;;;12.17;100.00
8717;BME280;4395;48.554;8.820;2023-04-28T06:32:20;95558.34;;;12.23;100.00
8717;BME280;4395;48.554;8.820;2023-04-28T06:34:23;95547.03;;;12.31;100.00
8717;BME280;4395;48.554;8.820;2023-04-28T06:36:27;95536.78;;;12.23;100.00
8717;BME280;4395;48.554;8.820;2023-04-28T06:38:30;95547.03;;;12.26;100.00
8717;BME280;4395;48.554;8.820;2023-04-28T06:40:34;95495.34;;;11.99;100.00
8717;BME280;4395;48.554;8.820;2023-04-28T06:42:39;95552.94;;;12.28;100.00
8717;BME280;4395;48.554;8.820;2023-04-28T06:44:51;95449.00;;;11.51;100.00
8717;BME280;4395;48.554;8.820;2023-04-28T06:46:54;95561.84;;;12.39;100.00
8717;BME280;4395;48.554;8.820;2023-04-28T06:48:57;95554.00;;;12.42;100.00
8717;BME280;4395;48.554;8.820;2023-04-28T06:51:00;95562.38;;;12.41;100.00
8717;BME280;4395;48.554;8.820;2023-04-28T06:53:03;95512.56;;;12.08;100.00
8717;BME280;4395;48.554;8.820;2023-04-28T06:55:07;95557.78;;;12.41;100.00
8717;BME280;4395;48.554;8.820;2023-04-28T06:57:12;95516.88;;;12.19;100.00
8717;BME280;4395;48.554;8.820;2023-04-28T06:59:15;95556.72;;;12.37;100.00
8717;BME280;4395;48.554;8.820;2023-04-28T07:01:17;95506.63;;;12.16;100.00
8717;BME280;4395;48.554;8.820;2023-04-28T07:03:20;95549.69;;;12.46;100.00
8717;BME280;4395;48.554;8.820;2023-04-28T07:05:23;95552.38;;;12.46;100.00
8717;BME280;4395;48.554;8.820;2023-04-28T07:07:26;95551.84;;;12.49;100.00
8717;BME280;4395;48.554;8.820;2023-04-28T07:09:29;95538.91;;;12.46;100.00
8717;BME280;4395;48.554;8.820;2023-04-28T07:11:32;95547.28;;;12.40;100.00
8717;BME280;4395;48.554;8.820;2023-04-28T07:13:36;95544.56;;;12.50;100.00
8717;BME280;4395;48.554;8.820;2023-04-28T07:15:38;95552.91;;;12.59;100.00
8717;BME280;4395;48.554;8.820;2023-04-28T07:17:41;95559.38;;;12.63;100.00
8717;BME280;4395;48.554;8.820;2023-04-28T07:19:44;95497.44;;;12.37;100.00
8717;BME280;4395;48.554;8.820;2023-04-28T07:21:47;95456.78;;;12.18;100.00
8717;BME280;4395;48.554;8.820;2023-04-28T07:23:49;95543.69;;;12.80;100.00
8717;BME280;4395;48.554;8.820;2023-04-28T07:25:52;95546.06;;;12.92;100.00
8717;BME280;4395;48.554;8.820;2023-04-28T07:27:55;95546.06;;;12.92;100.00
8717;BME280;4395;48.554;8.820;2023-04-28T07:29:59;95478.22;;;12.59;100.00
8717;BME280;4395;48.554;8.820;2023-04-28T07:32:12;95545.50;;;13.00;100.00
8717;BME280;4395;48.554;8.820;2023-04-28T07:34:15;95559.53;;;13.07;100.00
8717;BME280;4395;48.554;8.820;2023-04-28T07:36:18;95438.69;;;12.34;100.00
8717;BME280;4395;48.554;8.820;2023-04-28T07:38:21;95549.00;;;13.10;100.00
8717;BME280;4395;48.554;8.820;2023-04-28T07:40:24;95544.16;;;13.07;100.00
8717;BME280;4395;48.554;8.820;2023-04-28T07:42:27;95539.00;;;13.11;100.00
8717;BME280;4395;48.554;8.820;2023-04-28T07:44:30;95546.53;;;13.14;100.00
8717;BME280;4395;48.554;8.820;2023-04-28T07:46:34;95544.94;;;13.18;100.00
8717;BME280;4395;48.554;8.820;2023-04-28T07:48:37;95551.41;;;13.22;100.00
8717;BME280;4395;48.554;8.820;2023-04-28T07:50:40;95482.44;;;12.85;100.00
8717;BME280;4395;48.554;8.820;2023-04-28T07:52:42;95557.06;;;13.21;100.00
8717;BME280;4395;48.554;8.820;2023-04-28T07:54:46;95551.13;;;13.24;100.00
8717;BME280;4395;48.554;8.820;2023-04-28T07:56:48;95557.59;;;13.23;100.00
8717;BME280;4395;48.554;8.820;2023-04-28T07:58:51;95438.09;;;12.52;100.00
8717;BME280;4395;48.554;8.820;2023-04-28T08:00:54;95558.59;;;13.37;100.00
8717;BME280;4395;48.554;8.820;2023-04-28T08:02:58;95561.34;;;13.32;100.00
8717;BME280;4395;48.554;8.820;2023-04-28T08:05:01;95559.19;;;13.29;100.00
8717;BME280;4395;48.554;8.820;2023-04-28T08:07:05;95566.75;;;13.27;100.00
8717;BME280;4395;48.554;8.820;2023-04-28T08:09:07;95558.63;;;13.32;100.00
8717;BME280;4395;48.554;8.820;2023-04-28T08:11:10;95568.34;;;13.33;100.00
8717;BME280;4395;48.554;8.820;2023-04-28T08:13:13;95572.66;;;13.34;100.00
8717;BME280;4395;48.554;8.820;2023-04-28T08:15:17;95485.72;;;12.77;100.00
8717;BME280;4395;48.554;8.820;2023-04-28T08:17:20;95569.44;;;13.32;100.00
8717;BME280;4395;48.554;8.820;2023-04-28T08:19:24;95566.97;;;13.35;100.00
8717;BME280;4395;48.554;8.820;2023-04-28T08:21:26;95573.22;;;13.26;100.00
8717;BME280;4395;48.554;8.820;2023-04-28T08:23:29;95569.44;;;13.27;100.00
8717;BME280;4395;48.554;8.820;2023-04-28T08:25:32;95504.28;;;12.84;100.00
8717;BME280;4395;48.554;8.820;2023-04-28T08:27:35;95585.53;;;13.47;100.00
8717;BME280;4395;48.554;8.820;2023-04-28T08:29:40;95581.75;;;13.48;100.00
8717;BME280;4395;48.554;8.820;2023-04-28T08:31:42;95586.31;;;13.58;100.00
8717;BME280;4395;48.554;8.820;2023-04-28T08:33:46;95576.84;;;13.60;100.00
8717;BME280;4395;48.554;8.820;2023-04-28T08:35:54;95578.44;;;13.61;100.00
8717;BME280;4395;48.554;8.820;2023-04-28T08:37:57;95441.72;;;12.87;100.00
8717;BME280;4395;48.554;8.820;2023-04-28T08:39:59;95576.75;;;13.75;100.00
8717;BME280;4395;48.554;8.820;2023-04-28T08:42:05;95581.34;;;13.75;100.00
8717;BME280;4395;48.554;8.820;2023-04-28T08:44:08;95588.69;;;13.64;100.00
8717;BME280;4395;48.554;8.820;2023-04-28T08:46:13;95594.09;;;13.64;100.00
8717;BME280;4395;48.554;8.820;2023-04-28T08:48:18;95589.41;;;13.80;100.00
8717;BME280;4395;48.554;8.820;2023-04-28T08:50:21;95591.75;;;13.92;100.00
8717;BME280;4395;48.554;8.820;2023-04-28T08:52:26;95463.44;;;13.21;100.00
8717;BME280;4395;48.554;8.820;2023-04-28T08:54:34;95592.66;;;14.16;100.00
8717;BME280;4395;48.554;8.820;2023-04-28T08:56:37;95593.78;;;14.10;100.00
8717;BME280;4395;48.554;8.820;2023-04-28T08:58:40;95594.59;;;14.10;100.00
8717;BME280;4395;48.554;8.820;2023-04-28T09:00:43;95598.63;;;14.13;100.00
8717;BME280;4395;48.554;8.820;2023-04-28T09:02:46;95602.91;;;14.19;100.00
8717;BME280;4395;48.554;8.820;2023-04-28T09:04:49;95565.28;;;13.94;100.00
8717;BME280;4395;48.554;8.820;2023-04-28T09:06:52;95600.78;;;14.16;100.00
8717;BME280;4395;48.554;8.820;2023-04-28T09:09:17;95550.25;;;13.77;100.00
8717;BME280;4395;48.554;8.820;2023-04-28T09:11:20;95599.13;;;14.20;100.00
8717;BME280;4395;48.554;8.820;2023-04-28T09:13:24;95600.50;;;14.18;100.00
8717;BME280;4395;48.554;8.820;2023-04-28T09:15:28;95611.44;;;14.36;100.00
8717;BME280;4395;48.554;8.820;2023-04-28T09:17:46;95605.34;;;14.55;100.00
8717;BME280;4395;48.554;8.820;2023-04-28T09:19:49;95602.97;;;14.77;100.00
8717;BME280;4395;48.554;8.820;2023-04-28T09:21:53;95601.69;;;14.69;100.00
8717;BME280;4395;48.554;8.820;2023-04-28T09:23:57;95609.31;;;14.91;100.00
8717;BME280;4395;48.554;8.820;2023-04-28T09:26:02;95606.91;;;15.13;100.00
8717;BME280;4395;48.554;8.820;2023-04-28T09:28:18;95620.97;;;15.39;100.00
8717;BME280;4395;48.554;8.820;2023-04-28T09:30:37;95512.84;;;14.82;100.00
8717;BME280;4395;48.554;8.820;2023-04-28T09:32:41;95557.47;;;15.08;100.00
8717;BME280;4395;48.554;8.820;2023-04-28T09:34:45;95627.88;;;15.51;100.00
8717;BME280;4395;48.554;8.820;2023-04-28T09:36:48;95624.59;;;15.54;100.00
8717;BME280;4395;48.554;8.820;2023-04-28T09:38:51;95618.16;;;15.26;100.00
8717;BME280;4395;48.554;8.820;2023-04-28T09:40:57;95618.31;;;15.10;100.00
8717;BME280;4395;48.554;8.820;2023-04-28T09:43:01;95456.78;;;14.39;100.00
8717;BME280;4395;48.554;8.820;2023-04-28T09:45:21;95615.75;;;15.91;100.00
8717;BME280;4395;48.554;8.820;2023-04-28T09:47:25;95626.31;;;16.11;100.00
8717;BME280;4395;48.554;8.820;2023-04-28T09:49:27;95618.59;;;15.99;100.00
8717;BME280;4395;48.554;8.820;2023-04-28T09:51:30;95628.75;;;15.70;100.00
8717;BME280;4395;48.554;8.820;2023-04-28T09:53:33;95622.84;;;15.68;100.00
8717;BME280;4395;48.554;8.820;2023-04-28T09:55:39;95622.78;;;15.92;100.00
8717;BME280;4395;48.554;8.820;2023-04-28T09:57:48;95609.03;;;16.39;100.00
8717;BME280;4395;48.554;8.820;2023-04-28T09:59:52;95546.81;;;16.16;100.00
8717;BME280;4395;48.554;8.820;2023-04-28T10:01:55;95619.81;;;16.45;100.00
8717;BME280;4395;48.554;8.820;2023-04-28T10:03:59;95612.91;;;16.85;100.00
8717;BME280;4395;48.554;8.820;2023-04-28T10:06:04;95616.69;;;17.16;100.00
8717;BME280;4395;48.554;8.820;2023-04-28T10:08:08;95622.00;;;17.08;100.00
8717;BME280;4395;48.554;8.820;2023-04-28T10:10:12;95617.53;;;16.84;100.00
8717;BME280;4395;48.554;8.820;2023-04-28T10:12:16;95537.38;;;16.59;100.00
8717;BME280;4395;48.554;8.820;2023-04-28T10:14:20;95547.00;;;16.52;100.00
8717;BME280;4395;48.554;8.820;2023-04-28T10:16:23;95621.41;;;17.38;100.00
8717;BME280;4395;48.554;8.820;2023-04-28T10:18:29;95626.22;;;17.14;100.00
8717;BME280;4395;48.554;8.820;2023-04-28T10:20:33;95627.44;;;16.43;100.00
8717;BME280;4395;48.554;8.820;2023-04-28T10:22:51;95618.63;;;16.69;100.00
8717;BME280;4395;48.554;8.820;2023-04-28T10:25:11;95514.34;;;16.43;100.00
8717;BME280;4395;48.554;8.820;2023-04-28T10:27:19;95611.72;;;16.91;100.00
8717;BME280;4395;48.554;8.820;2023-04-28T10:29:25;95629.25;;;17.26;100.00
8717;BME280;4395;48.554;8.820;2023-04-28T10:31:28;95614.28;;;17.56;100.00
8717;BME280;4395;48.554;8.820;2023-04-28T10:33:31;95585.41;;;17.19;100.00
8717;BME280;4395;48.554;8.820;2023-04-28T10:35:40;95607.75;;;17.29;100.00
8717;BME280;4395;48.554;8.820;2023-04-28T10:38:01;95621.81;;;17.18;100.00
8717;BME280;4395;48.554;8.820;2023-04-28T10:40:30;95631.88;;;17.31;100.00
8717;BME280;4395;48.554;8.820;2023-04-28T10:42:52;95629.19;;;17.72;100.00
8717;BME280;4395;48.554;8.820;2023-04-28T10:44:56;95621.00;;;17.86;100.00
8717;BME280;4395;48.554;8.820;2023-04-28T10:47:00;95637.63;;;17.84;100.00
8717;BME280;4395;48.554;8.820;2023-04-28T10:49:03;95625.44;;;17.54;100.00
8717;BME280;4395;48.554;8.820;2023-04-28T10:51:30;95616.34;;;18.00;100.00
8717;BME280;4395;48.554;8.820;2023-04-28T10:56:26;95620.31;;;18.16;100.00
8717;BME280;4395;48.554;8.820;2023-04-28T10:58:30;95619.19;;;17.95;100.00
8717;BME280;4395;48.554;8.820;2023-04-28T11:00:35;95564.03;;;17.81;100.00
8717;BME280;4395;48.554;8.820;2023-04-28T11:02:40;95616.94;;;18.69;100.00
8717;BME280;4395;48.554;8.820;2023-04-28T11:05:09;95604.00;;;17.80;100.00
8717;BME280;4395;48.554;8.820;2023-04-28T11:07:13;95611.94;;;17.63;100.00
8717;BME280;4395;48.554;8.820;2023-04-28T11:09:47;95610.31;;;17.89;100.00
8717;BME280;4395;48.554;8.820;2023-04-28T11:12:03;95614.94;;;18.39;100.00